createdAt,value
2022-08-22T00:01:20.783Z,14.03
2022-08-22T00:02:48.063Z,18.49
2022-08-22T00:04:06.780Z,14.05
2022-08-22T00:06:37.690Z,14.05
2022-08-22T00:09:16.249Z,14.03
2022-08-22T00:12:05.806Z,14.04
2022-08-22T00:14:34.847Z,14.06
2022-08-22T00:17:13.271Z,13.90
2022-08-22T00:19:49.375Z,13.83
2022-08-22T00:22:25.943Z,13.80
2022-08-22T00:25:25.904Z,13.70
2022-08-22T00:28:11.807Z,13.56
2022-08-22T00:30:44.827Z,13.57
2022-08-22T00:33:22.158Z,13.59
2022-08-22T00:35:51.723Z,13.62
2022-08-22T00:38:29.537Z,13.61
2022-08-22T00:41:20.052Z,13.60
2022-08-22T00:44:12.518Z,13.54
2022-08-22T00:46:48.350Z,13.50
2022-08-22T00:49:24.386Z,13.47
2022-08-22T00:52:07.761Z,13.30
2022-08-22T00:54:34.406Z,13.36
2022-08-22T00:57:16.379Z,13.42
2022-08-22T00:59:51.730Z,13.39
2022-08-22T01:02:32.823Z,13.25
2022-08-22T01:05:11.474Z,13.22
2022-08-22T01:07:46.880Z,13.24
2022-08-22T01:10:23.389Z,13.32
2022-08-22T01:12:59.376Z,13.26
2022-08-22T01:15:28.346Z,13.17
2022-08-22T01:18:04.652Z,13.06
2022-08-22T01:21:05.177Z,13.05
2022-08-22T01:23:50.469Z,13.08
2022-08-22T01:26:22.793Z,13.00
2022-08-22T01:29:01.285Z,12.85
2022-08-22T01:31:35.112Z,12.80
2022-08-22T01:34:20.354Z,12.73
2022-08-22T01:37:05.728Z,12.70
2022-08-22T01:39:47.120Z,12.59
2022-08-22T01:42:28.546Z,12.60
2022-08-22T01:45:06.591Z,12.62
2022-08-22T01:47:39.862Z,12.64
2022-08-22T01:50:12.882Z,12.59
2022-08-22T01:52:42.899Z,12.59
2022-08-22T01:55:12.995Z,12.55
2022-08-22T01:57:53.656Z,12.56
2022-08-22T02:00:35.119Z,12.59
2022-08-22T02:03:09.458Z,12.55
2022-08-22T02:06:00.260Z,12.56
2022-08-22T02:08:31.574Z,12.46
2022-08-22T02:11:06.079Z,12.43
2022-08-22T02:13:41.557Z,12.41
2022-08-22T02:16:27.303Z,12.38
2022-08-22T02:18:59.985Z,12.39
2022-08-22T02:21:31.943Z,12.46
2022-08-22T02:24:00.480Z,12.52
2022-08-22T02:26:41.471Z,12.53
2022-08-22T02:29:18.972Z,12.56
2022-08-22T02:31:54.151Z,12.50
2022-08-22T02:34:26.551Z,12.39
2022-08-22T02:36:58.183Z,12.32
2022-08-22T02:39:43.051Z,12.35
2022-08-22T02:42:12.465Z,12.38
2022-08-22T02:45:08.448Z,12.41
2022-08-22T02:47:46.749Z,12.42
2022-08-22T02:50:34.762Z,12.33
2022-08-22T02:53:10.281Z,12.23
2022-08-22T02:55:53.846Z,12.20
2022-08-22T02:58:26.373Z,12.18
2022-08-22T03:01:00.571Z,12.15
2022-08-22T03:03:28.818Z,12.14
2022-08-22T03:06:27.721Z,12.19
2022-08-22T03:09:08.690Z,12.16
2022-08-22T03:11:38.542Z,12.05
2022-08-22T03:14:08.075Z,11.91
2022-08-22T03:16:38.738Z,11.85
2022-08-22T03:19:23.893Z,11.84
2022-08-22T03:21:56.207Z,11.84
2022-08-22T03:24:37.453Z,11.85
2022-08-22T03:27:03.862Z,11.89
2022-08-22T03:29:36.259Z,11.86
2022-08-22T03:32:09.919Z,11.78
2022-08-22T03:34:37.059Z,11.78
2022-08-22T03:37:15.919Z,11.78
2022-08-22T03:39:51.439Z,11.76
2022-08-22T03:42:30.132Z,11.76
2022-08-22T03:45:02.377Z,11.75
2022-08-22T03:47:37.923Z,11.76
2022-08-22T03:50:26.590Z,11.80
2022-08-22T03:53:22.300Z,11.86
2022-08-22T03:56:03.624Z,11.90
2022-08-22T03:58:48.960Z,11.83
2022-08-22T04:01:34.123Z,11.77
2022-08-22T04:04:00.387Z,11.64
2022-08-22T04:06:29.831Z,11.62
2022-08-22T04:09:08.177Z,11.64
2022-08-22T04:11:52.638Z,11.73
2022-08-22T04:14:25.706Z,11.73
2022-08-22T04:16:55.080Z,11.69
2022-08-22T04:19:30.500Z,11.64
2022-08-22T04:22:09.473Z,11.61
2022-08-22T04:24:45.309Z,11.64
2022-08-22T04:27:29.673Z,11.64
2022-08-22T04:30:09.301Z,11.61
2022-08-22T04:32:58.426Z,11.56
2022-08-22T04:35:31.064Z,11.62
2022-08-22T04:38:02.267Z,11.74
2022-08-22T04:40:47.446Z,11.82
2022-08-22T04:43:29.735Z,11.75
2022-08-22T04:46:07.188Z,11.64
2022-08-22T04:48:39.444Z,11.57
2022-08-22T04:51:13.985Z,11.57
2022-08-22T04:53:49.606Z,11.58
2022-08-22T04:56:24.768Z,13.23
2022-08-22T04:58:58.379Z,14.09
2022-08-22T05:01:26.964Z,14.22
2022-08-22T05:04:00.808Z,14.82
2022-08-22T05:06:29.089Z,14.48
2022-08-22T05:08:59.715Z,14.27
2022-08-22T05:11:27.313Z,14.77
2022-08-22T05:13:56.512Z,14.70
2022-08-22T05:16:32.074Z,14.57
2022-08-22T05:19:03.270Z,13.92
2022-08-22T05:21:40.255Z,12.98
2022-08-22T05:24:10.503Z,12.82
2022-08-22T05:26:38.958Z,12.84
2022-08-22T05:29:07.718Z,12.91
2022-08-22T05:31:52.605Z,12.88
2022-08-22T05:34:23.842Z,13.10
2022-08-22T05:36:55.285Z,13.32
2022-08-22T05:39:25.401Z,13.41
2022-08-22T05:41:55.644Z,13.26
2022-08-22T05:44:21.990Z,13.56
2022-08-22T05:46:51.551Z,13.76
2022-08-22T05:49:25.834Z,14.14
2022-08-22T05:52:13.373Z,14.43
2022-08-22T05:54:53.012Z,14.62
2022-08-22T05:57:22.416Z,14.51
2022-08-22T05:59:53.694Z,14.70
2022-08-22T06:02:25.265Z,14.85
2022-08-22T06:04:58.634Z,15.39
2022-08-22T06:07:35.224Z,14.93
2022-08-22T06:10:16.619Z,14.96
2022-08-22T06:12:45.948Z,15.52
2022-08-22T06:15:15.598Z,15.37
2022-08-22T06:17:57.706Z,15.18
2022-08-22T06:20:28.610Z,15.41
2022-08-22T06:22:57.268Z,16.15
2022-08-22T06:25:30.335Z,16.44
2022-08-22T06:27:59.063Z,15.93
2022-08-22T06:30:27.254Z,16.02
2022-08-22T06:32:59.992Z,15.99
2022-08-22T06:35:36.337Z,16.17
2022-08-22T06:38:03.862Z,16.28
2022-08-22T06:40:30.306Z,16.33
2022-08-22T06:42:57.473Z,16.37
2022-08-22T06:45:30.738Z,16.45
2022-08-22T06:48:01.137Z,16.55
2022-08-22T06:50:30.650Z,16.56
2022-08-22T06:52:59.809Z,16.71
2022-08-22T06:55:27.650Z,16.84
2022-08-22T06:57:59.867Z,16.97
2022-08-22T07:00:26.751Z,16.85
2022-08-22T07:02:57.125Z,16.95
2022-08-22T07:05:27.675Z,16.97
2022-08-22T07:07:55.348Z,17.48
2022-08-22T07:10:24.214Z,17.70
2022-08-22T07:12:52.524Z,18.03
2022-08-22T07:15:20.913Z,18.10
2022-08-22T07:17:49.733Z,18.30
2022-08-22T07:20:24.575Z,18.34
2022-08-22T07:22:54.193Z,18.07
2022-08-22T07:25:20.885Z,18.33
2022-08-22T07:27:54.254Z,18.21
2022-08-22T07:30:27.451Z,17.97
2022-08-22T07:32:57.762Z,18.13
2022-08-22T07:35:53.368Z,18.16
2022-08-22T07:38:27.503Z,18.44
2022-08-22T07:41:07.553Z,19.06
2022-08-22T07:43:49.057Z,19.31
2022-08-22T07:46:37.178Z,19.81
2022-08-22T07:49:10.516Z,19.80
2022-08-22T07:51:42.141Z,20.13
2022-08-22T07:54:11.211Z,20.42
2022-08-22T07:56:41.571Z,20.69
2022-08-22T07:59:13.392Z,20.90
2022-08-22T08:01:44.344Z,21.21
2022-08-22T08:04:12.999Z,21.28
2022-08-22T08:06:40.000Z,21.02
2022-08-22T08:09:08.339Z,21.41
2022-08-22T08:11:38.808Z,21.37
2022-08-22T08:14:07.070Z,21.90
2022-08-22T08:16:40.773Z,22.12
2022-08-22T08:19:08.705Z,22.39
2022-08-22T08:22:01.655Z,22.54
2022-08-22T08:24:41.364Z,22.52
2022-08-22T08:27:15.318Z,22.53
2022-08-22T08:29:45.568Z,22.50
2022-08-22T08:32:13.169Z,22.72
2022-08-22T08:34:39.953Z,23.08
2022-08-22T08:37:14.895Z,23.50
2022-08-22T08:39:44.400Z,23.50
2022-08-22T08:42:10.966Z,23.65
2022-08-22T08:45:02.809Z,23.65
2022-08-22T08:47:56.597Z,23.77
2022-08-22T08:50:26.530Z,23.93
2022-08-22T08:53:13.848Z,24.09
2022-08-22T08:55:59.912Z,24.50
2022-08-22T08:58:48.810Z,24.96
2022-08-22T09:01:40.235Z,24.57
2022-08-22T09:04:26.220Z,24.77
2022-08-22T09:07:01.450Z,25.17
2022-08-22T09:09:52.743Z,24.96
2022-08-22T09:12:21.034Z,25.26
2022-08-22T09:14:55.974Z,25.44
2022-08-22T09:17:38.300Z,25.34
2022-08-22T09:20:17.998Z,25.06
2022-08-22T09:23:05.120Z,25.16
2022-08-22T09:25:42.813Z,25.12
2022-08-22T09:28:28.192Z,25.64
2022-08-22T09:34:05.292Z,25.64
2022-08-22T09:37:02.158Z,24.97
2022-08-22T09:39:39.973Z,25.66
2022-08-22T09:42:25.640Z,25.94
2022-08-22T09:45:09.106Z,26.24
2022-08-22T09:47:45.858Z,26.07
2022-08-22T09:50:17.601Z,26.24
2022-08-22T09:53:02.863Z,25.97
2022-08-22T09:55:35.247Z,25.82
2022-08-22T09:58:06.790Z,26.06
2022-08-22T10:00:51.396Z,26.42
2022-08-22T10:03:41.836Z,26.94
2022-08-22T10:06:15.701Z,26.07
2022-08-22T10:09:03.624Z,26.25
2022-08-22T10:11:42.288Z,26.82
2022-08-22T10:14:22.248Z,26.58
2022-08-22T10:16:58.071Z,25.97
2022-08-22T10:19:30.071Z,26.45
2022-08-22T10:22:15.148Z,26.33
2022-08-22T10:24:50.447Z,26.57
2022-08-22T10:27:29.545Z,26.98
2022-08-22T10:30:08.264Z,26.90
2022-08-22T10:32:41.302Z,26.76
2022-08-22T10:35:28.286Z,26.91
2022-08-22T10:38:10.574Z,26.41
2022-08-22T10:40:53.537Z,26.77
2022-08-22T10:43:28.731Z,27.08
2022-08-22T10:46:04.541Z,27.58
2022-08-22T10:48:35.547Z,27.43
2022-08-22T10:51:19.917Z,27.82
2022-08-22T10:53:56.354Z,27.40
2022-08-22T10:56:27.455Z,27.63
2022-08-22T10:59:00.614Z,27.26
2022-08-22T11:01:38.314Z,27.44
2022-08-22T11:04:31.043Z,28.17
2022-08-22T11:07:30.698Z,28.38
2022-08-22T11:10:03.525Z,28.37
2022-08-22T11:12:34.905Z,28.70
2022-08-22T11:15:05.425Z,28.03
2022-08-22T11:17:34.554Z,28.14
2022-08-22T11:20:25.371Z,28.42
2022-08-22T11:22:55.775Z,28.14
2022-08-22T11:25:40.948Z,27.12
2022-08-22T11:28:30.345Z,27.66
2022-08-22T11:31:03.092Z,27.99
2022-08-22T11:33:46.391Z,27.51
2022-08-22T11:36:27.351Z,27.72
2022-08-22T11:39:06.517Z,27.30
2022-08-22T11:41:42.941Z,27.91
2022-08-22T11:44:13.775Z,28.19
2022-08-22T11:46:42.580Z,28.09
2022-08-22T11:49:25.592Z,28.48
2022-08-22T11:52:03.621Z,27.67
2022-08-22T11:55:02.523Z,28.52
2022-08-22T11:57:32.523Z,28.32
2022-08-22T12:00:20.668Z,28.11
2022-08-22T12:02:53.383Z,28.46
2022-08-22T12:05:26.396Z,28.58
2022-08-22T12:07:56.670Z,27.84
2022-08-22T12:10:32.199Z,28.70
2022-08-22T12:13:01.856Z,28.43
2022-08-22T12:15:47.356Z,28.48
2022-08-22T12:18:28.643Z,28.74
2022-08-22T12:21:01.427Z,28.65
2022-08-22T12:23:43.468Z,28.51
2022-08-22T12:26:21.982Z,28.57
2022-08-22T12:29:18.807Z,28.18
2022-08-22T12:32:04.760Z,28.48
2022-08-22T12:34:45.123Z,28.58
2022-08-22T12:37:16.353Z,27.83
2022-08-22T12:39:44.146Z,28.12
2022-08-22T12:42:36.917Z,27.91
2022-08-22T12:45:09.345Z,28.15
2022-08-22T12:47:35.899Z,27.41
2022-08-22T12:50:10.499Z,27.40
2022-08-22T12:52:55.957Z,27.15
2022-08-22T12:55:28.987Z,27.55
2022-08-22T12:58:14.942Z,28.40
2022-08-22T13:00:47.228Z,28.70
2022-08-22T13:03:31.753Z,28.24
2022-08-22T13:06:03.416Z,28.46
2022-08-22T13:08:36.242Z,28.15
2022-08-22T13:11:09.991Z,28.49
2022-08-22T13:13:56.099Z,28.48
2022-08-22T13:16:24.775Z,28.62
2022-08-22T13:18:56.785Z,28.48
2022-08-22T13:21:26.820Z,28.64
2022-08-22T13:23:59.121Z,28.43
2022-08-22T13:26:33.128Z,28.73
2022-08-22T13:29:25.048Z,28.98
2022-08-22T13:31:55.203Z,28.31
2022-08-22T13:34:40.302Z,28.71
2022-08-22T13:37:11.478Z,28.61
2022-08-22T13:39:41.216Z,28.65
2022-08-22T13:42:27.731Z,28.91
2022-08-22T13:44:58.281Z,29.64
2022-08-22T13:47:25.728Z,29.61
2022-08-22T13:50:04.066Z,28.70
2022-08-22T13:52:30.613Z,29.01
2022-08-22T13:55:00.851Z,28.40
2022-08-22T13:57:27.412Z,28.40
2022-08-22T14:00:06.418Z,28.04
2022-08-22T14:02:43.220Z,28.32
2022-08-22T14:05:12.935Z,27.99
2022-08-22T14:07:48.773Z,28.29
2022-08-22T14:10:23.140Z,28.39
2022-08-22T14:12:58.507Z,28.28
2022-08-22T14:15:32.140Z,28.68
2022-08-22T14:18:11.027Z,28.85
2022-08-22T14:20:38.860Z,28.86
2022-08-22T14:23:08.827Z,28.62
2022-08-22T14:25:36.877Z,29.24
2022-08-22T14:28:06.496Z,28.93
2022-08-22T14:30:49.459Z,28.68
2022-08-22T14:33:23.773Z,28.54
2022-08-22T14:35:54.365Z,28.02
2022-08-22T14:38:27.196Z,27.95
2022-08-22T14:40:56.319Z,28.42
2022-08-22T14:43:29.499Z,28.14
2022-08-22T14:46:04.260Z,28.05
2022-08-22T14:48:42.069Z,27.59
2022-08-22T14:51:10.583Z,27.71
2022-08-22T14:53:38.696Z,27.71
2022-08-22T14:56:08.414Z,27.38
2022-08-22T14:58:57.662Z,27.40
2022-08-22T15:01:29.879Z,27.82
2022-08-22T15:04:07.644Z,28.13
2022-08-22T15:06:34.181Z,27.83
2022-08-22T15:09:07.972Z,27.27
2022-08-22T15:11:36.114Z,27.33
2022-08-22T15:14:06.735Z,27.40
2022-08-22T15:16:33.102Z,27.31
2022-08-22T15:19:00.704Z,26.96
2022-08-22T15:21:30.297Z,27.09
2022-08-22T15:24:02.223Z,27.41
2022-08-22T15:26:28.586Z,27.45
2022-08-22T15:28:56.816Z,27.38
2022-08-22T15:31:23.760Z,27.22
2022-08-22T15:33:50.699Z,26.98
2022-08-22T15:36:25.141Z,27.03
2022-08-22T15:38:57.780Z,27.15
2022-08-22T15:41:24.354Z,27.16
2022-08-22T15:44:14.958Z,26.95
2022-08-22T15:47:10.610Z,26.99
2022-08-22T15:49:49.344Z,27.07
2022-08-22T15:52:22.568Z,27.09
2022-08-22T15:54:57.026Z,26.93
2022-08-22T15:57:32.049Z,26.84
2022-08-22T16:00:02.036Z,26.90
2022-08-22T16:02:30.182Z,26.88
2022-08-22T16:05:21.535Z,26.77
2022-08-22T16:07:59.230Z,26.87
2022-08-22T16:10:51.717Z,26.70
2022-08-22T16:13:29.638Z,26.79
2022-08-22T16:15:58.568Z,26.85
2022-08-22T16:18:34.388Z,26.86
2022-08-22T16:21:02.081Z,26.51
2022-08-22T16:23:29.355Z,26.38
2022-08-22T16:25:59.922Z,26.38
2022-08-22T16:28:56.845Z,26.29
2022-08-22T16:31:26.802Z,26.30
2022-08-22T16:33:54.730Z,26.36
2022-08-22T16:36:42.805Z,26.34
2022-08-22T16:39:21.181Z,26.44
2022-08-22T16:41:49.233Z,26.43
2022-08-22T16:44:33.552Z,26.43
2022-08-22T16:47:14.535Z,26.34
2022-08-22T16:49:54.371Z,26.34
2022-08-22T16:52:20.705Z,26.42
2022-08-22T16:54:48.489Z,26.40
2022-08-22T16:57:20.222Z,26.24
2022-08-22T17:00:06.546Z,26.19
2022-08-22T17:02:41.757Z,26.15
2022-08-22T17:05:18.214Z,26.15
2022-08-22T17:08:03.414Z,26.17
2022-08-22T17:10:30.116Z,26.16
2022-08-22T17:13:21.969Z,26.41
2022-08-22T17:16:02.831Z,26.52
2022-08-22T17:18:52.779Z,26.14
2022-08-22T17:21:28.557Z,25.96
2022-08-22T17:23:59.303Z,26.20
2022-08-22T17:26:44.311Z,26.06
2022-08-22T17:29:25.813Z,26.05
2022-08-22T17:32:02.954Z,25.91
2022-08-22T17:34:29.422Z,25.84
2022-08-22T17:37:06.378Z,26.02
2022-08-22T17:39:55.670Z,25.92
2022-08-22T17:42:28.203Z,25.68
2022-08-22T17:45:07.031Z,25.53
2022-08-22T17:47:39.088Z,25.45
2022-08-22T17:50:10.857Z,25.28
2022-08-22T17:52:47.930Z,25.07
2022-08-22T17:55:19.699Z,24.94
2022-08-22T17:58:04.913Z,24.89
2022-08-22T18:00:33.195Z,24.65
2022-08-22T18:03:15.299Z,24.54
2022-08-22T18:06:01.364Z,24.37
2022-08-22T18:09:13.408Z,24.20
2022-08-22T18:11:41.217Z,24.10
2022-08-22T18:14:26.270Z,23.97
2022-08-22T18:16:54.464Z,23.90
2022-08-22T18:19:25.924Z,23.83
2022-08-22T18:22:03.671Z,23.73
2022-08-22T18:24:49.924Z,23.59
2022-08-22T18:27:34.934Z,23.40
2022-08-22T18:30:04.941Z,23.25
2022-08-22T18:32:36.335Z,23.18
2022-08-22T18:35:25.469Z,23.04
2022-08-22T18:38:00.242Z,22.89
2022-08-22T18:40:49.902Z,22.79
2022-08-22T18:43:16.700Z,22.65
2022-08-22T18:45:45.919Z,22.56
2022-08-22T18:48:30.817Z,22.49
2022-08-22T18:51:21.269Z,22.37
2022-08-22T18:54:19.100Z,22.30
2022-08-22T18:56:54.039Z,22.22
2022-08-22T18:59:35.676Z,22.13
2022-08-22T19:02:24.398Z,22.00
2022-08-22T19:05:09.994Z,21.83
2022-08-22T19:07:57.581Z,21.70
2022-08-22T19:10:44.831Z,21.56
2022-08-22T19:13:17.646Z,21.46
2022-08-22T19:15:47.045Z,21.40
2022-08-22T19:18:22.649Z,21.34
2022-08-22T19:21:12.836Z,21.24
2022-08-22T19:23:43.058Z,21.05
2022-08-22T19:26:30.875Z,20.91
2022-08-22T19:29:01.777Z,20.76
2022-08-22T19:31:39.714Z,20.45
2022-08-22T19:34:24.903Z,20.35
2022-08-22T19:37:09.781Z,20.34
2022-08-22T19:39:57.892Z,20.28
2022-08-22T19:42:24.338Z,20.24
2022-08-22T19:44:53.720Z,20.17
2022-08-22T19:47:20.072Z,20.02
2022-08-22T19:49:55.671Z,19.97
2022-08-22T19:52:39.983Z,19.96
2022-08-22T19:55:18.831Z,19.92
2022-08-22T19:57:54.342Z,19.58
2022-08-22T20:00:20.939Z,19.61
2022-08-22T20:03:03.798Z,19.56
2022-08-22T20:05:30.190Z,19.45
2022-08-22T20:08:05.481Z,19.38
2022-08-22T20:10:55.164Z,19.38
2022-08-22T20:13:25.946Z,19.24
2022-08-22T20:16:13.963Z,19.20
2022-08-22T20:19:06.108Z,19.13
2022-08-22T20:21:42.214Z,19.05
2022-08-22T20:24:39.533Z,19.09
2022-08-22T20:27:14.592Z,19.26
2022-08-22T20:29:56.643Z,19.43
2022-08-22T20:32:23.885Z,19.65
2022-08-22T20:34:54.669Z,19.68
2022-08-22T20:37:35.850Z,19.60
2022-08-22T20:40:53.522Z,19.56
2022-08-22T20:43:10.594Z,19.44
2022-08-22T20:45:41.192Z,19.31
2022-08-22T20:48:10.357Z,19.30
2022-08-22T20:50:36.700Z,19.60
2022-08-22T20:53:16.622Z,19.75
2022-08-22T20:55:54.135Z,19.90
2022-08-22T20:58:33.064Z,20.05
2022-08-22T21:01:01.308Z,20.06
2022-08-22T21:03:32.336Z,20.16
2022-08-22T21:06:09.100Z,20.15
2022-08-22T21:08:35.672Z,20.12
2022-08-22T21:11:04.304Z,19.71
2022-08-22T21:13:35.050Z,19.18
2022-08-22T21:16:11.166Z,18.45
2022-08-22T21:18:39.391Z,18.21
2022-08-22T21:21:17.735Z,18.06
2022-08-22T21:23:58.691Z,17.92
2022-08-22T21:26:35.196Z,17.78
2022-08-22T21:29:18.567Z,17.73
2022-08-22T21:31:59.411Z,17.67
2022-08-22T21:34:38.929Z,17.73
2022-08-22T21:37:09.669Z,17.75
2022-08-22T21:39:43.865Z,17.73
2022-08-22T21:42:11.947Z,17.70
2022-08-22T21:44:40.419Z,17.68
2022-08-22T21:47:30.918Z,17.70
2022-08-22T21:50:03.676Z,17.81
2022-08-22T21:52:31.928Z,17.70
2022-08-22T21:55:13.427Z,17.64
2022-08-22T21:57:39.823Z,17.58
2022-08-22T22:00:09.429Z,17.59
2022-08-22T22:02:39.673Z,17.55
2022-08-22T22:05:11.895Z,17.49
2022-08-22T22:07:43.461Z,17.44
2022-08-22T22:10:11.740Z,17.42
2022-08-22T22:12:43.228Z,17.43
2022-08-22T22:15:12.786Z,17.43
2022-08-22T22:17:39.462Z,17.36
2022-08-22T22:20:05.940Z,17.33
2022-08-22T22:22:32.466Z,17.37
2022-08-22T22:25:03.969Z,17.39
2022-08-22T22:27:30.315Z,17.37
2022-08-22T22:29:57.091Z,17.29
2022-08-22T22:32:23.573Z,17.19
2022-08-22T22:34:50.101Z,17.21
2022-08-22T22:37:16.897Z,17.28
2022-08-22T22:39:43.576Z,17.37
2022-08-22T22:42:10.058Z,17.30
2022-08-22T22:44:36.538Z,17.29
2022-08-22T22:47:03.838Z,17.28
2022-08-22T22:49:31.625Z,17.26
2022-08-22T22:52:00.271Z,17.23
2022-08-22T22:54:27.496Z,17.16
2022-08-22T22:56:56.343Z,17.11
2022-08-22T22:59:25.027Z,16.96
2022-08-22T23:02:06.059Z,16.99
2022-08-22T23:04:33.504Z,16.81
2022-08-22T23:06:59.974Z,16.81
2022-08-22T23:09:37.924Z,16.78
2022-08-22T23:12:05.540Z,16.76
2022-08-22T23:14:34.386Z,16.73
2022-08-22T23:17:01.335Z,16.61
2022-08-22T23:19:28.072Z,16.52
2022-08-22T23:21:58.105Z,16.44
2022-08-22T23:24:25.486Z,16.31
2022-08-22T23:26:51.911Z,16.14
2022-08-22T23:29:19.450Z,16.01
2022-08-22T23:31:52.795Z,15.83
2022-08-22T23:34:20.516Z,15.73
2022-08-22T23:36:47.301Z,15.63
2022-08-22T23:39:14.679Z,15.62
2022-08-22T23:41:44.113Z,15.60
2022-08-22T23:44:14.706Z,15.61
2022-08-22T23:46:41.765Z,15.64
2022-08-22T23:49:08.496Z,15.69
2022-08-22T23:51:35.413Z,15.76
2022-08-22T23:54:02.131Z,15.60
2022-08-22T23:56:30.665Z,15.50
2022-08-22T23:58:58.153Z,15.46
